Time;durP1;ratioP1;P1;durP2;ratioP2;P2;SDS_P1;SDS_P2;PMS_P1;PMS_P2;Temp;Humidity;BMP_temperature;BMP_pressure;BME280_temperature;BME280_humidity;BME280_pressure;Samples;Min_cycle;Max_cycle;Signal;HPM_P1;HPM_P2
2022/04/02 03:36:10;;;;;;;18.02;12.65;;;-1.70;99.90;;;;;;5095297;28;20085;-74
2022/04/02 03:38:39;;;;;;;18.33;12.18;;;-1.70;99.90;;;;;;5095281;28;20032;-73
2022/04/02 03:41:04;;;;;;;18.67;12.50;;;-1.70;99.90;;;;;;5093887;28;20020;-73
2022/04/02 03:43:31;;;;;;;23.38;15.10;;;-1.70;99.90;;;;;;5095073;28;20089;-76
2022/04/02 03:47:08;;;;;;;16.92;11.63;;;-1.70;99.90;;;;;;5094813;28;20046;-74
2022/04/02 03:48:43;;;;;;;18.15;11.05;;;-1.70;99.90;;;;;;5094895;28;20024;-74
2022/04/02 03:51:09;;;;;;;19.60;12.63;;;-1.70;99.90;;;;;;5094875;28;20054;-75
2022/04/02 03:53:35;;;;;;;28.38;13.27;;;-1.60;99.90;;;;;;5094944;28;20020;-75
2022/04/02 03:56:00;;;;;;;18.08;12.82;;;-1.60;99.90;;;;;;5094704;28;20111;-74
2022/04/02 03:58:27;;;;;;;16.90;11.63;;;-1.70;99.90;;;;;;5094726;28;20063;-75
2022/04/02 04:00:53;;;;;;;20.42;12.82;;;-1.70;99.90;;;;;;5094715;28;20024;-74
2022/04/02 04:03:19;;;;;;;23.25;14.80;;;-1.70;99.90;;;;;;5094626;28;20481;-75
2022/04/02 04:05:45;;;;;;;22.88;14.75;;;-1.70;99.90;;;;;;5094467;28;20027;-74
2022/04/02 04:08:11;;;;;;;22.15;15.00;;;-1.60;99.90;;;;;;5093216;28;20048;-73
2022/04/02 04:10:36;;;;;;;16.30;11.40;;;-1.70;99.90;;;;;;5093203;28;20059;-74
2022/04/02 04:13:02;;;;;;;22.33;14.05;;;-1.80;99.90;;;;;;5094417;28;20024;-75
2022/04/02 04:15:28;;;;;;;20.80;13.02;;;-1.70;99.90;;;;;;5092949;28;20085;-73
2022/04/02 04:17:56;;;;;;;18.20;13.10;;;-1.70;99.90;;;;;;5094428;28;20024;-74
2022/04/02 04:20:22;;;;;;;20.60;14.13;;;-1.80;99.90;;;;;;5093664;28;20096;-74
2022/04/02 04:22:47;;;;;;;18.38;12.45;;;-1.70;99.90;;;;;;5094266;28;20025;-74
2022/04/02 04:25:13;;;;;;;21.15;11.82;;;-1.70;99.90;;;;;;5094288;28;20415;-75
2022/04/02 04:27:39;;;;;;;19.25;12.57;;;-1.80;99.90;;;;;;5094094;28;20028;-75
2022/04/02 04:30:05;;;;;;;21.73;12.65;;;-1.80;99.90;;;;;;5094122;28;20024;-73
2022/04/02 04:32:31;;;;;;;21.52;13.93;;;-1.80;99.90;;;;;;5092819;28;20485;-76
2022/04/02 04:34:57;;;;;;;19.10;12.48;;;-1.80;99.90;;;;;;5093854;28;20052;-74
2022/04/02 04:37:22;;;;;;;24.15;14.00;;;-1.80;99.90;;;;;;5094028;28;20503;-73
2022/04/02 04:39:48;;;;;;;23.42;13.27;;;-1.80;99.90;;;;;;5092636;28;20026;-74
2022/04/02 04:42:13;;;;;;;18.83;12.35;;;-1.70;99.90;;;;;;5094145;28;20024;-75
2022/04/02 04:44:40;;;;;;;20.67;14.38;;;-1.80;99.90;;;;;;5093890;28;20091;-73
2022/04/02 04:47:06;;;;;;;22.00;13.38;;;-1.70;99.90;;;;;;5105132;27;20027;-73
2022/04/02 04:49:32;;;;;;;25.27;14.57;;;-1.70;99.90;;;;;;5092679;28;20050;-73
2022/04/02 04:51:58;;;;;;;20.50;12.57;;;-1.70;99.90;;;;;;5092868;28;20028;-75
2022/04/02 04:54:24;;;;;;;24.50;15.35;;;-1.70;99.90;;;;;;5091405;28;20051;-74
2022/04/02 04:56:49;;;;;;;49.00;22.35;;;-1.70;99.90;;;;;;5092130;28;20024;-75
2022/04/02 04:59:15;;;;;;;45.10;25.45;;;-1.70;99.90;;;;;;5092548;27;20036;-74
2022/04/02 05:01:41;;;;;;;23.67;15.23;;;-1.70;99.90;;;;;;5091209;28;20477;-75
2022/04/02 05:04:06;;;;;;;33.78;18.20;;;-1.60;99.90;;;;;;5092537;27;20039;-74
2022/04/02 05:06:34;;;;;;;25.58;14.93;;;-1.70;99.90;;;;;;5092528;28;20020;-74
2022/04/02 05:08:59;;;;;;;25.38;14.95;;;-1.60;99.90;;;;;;5092427;27;20059;-75
2022/04/02 05:11:25;;;;;;;22.83;14.45;;;-1.60;99.90;;;;;;5092185;28;20109;-75
2022/04/02 05:13:51;;;;;;;22.50;15.23;;;-1.70;99.90;;;;;;5111584;27;20032;-75
2022/04/02 05:16:17;;;;;;;24.38;15.38;;;-1.70;99.90;;;;;;5096688;28;20043;-75
2022/04/02 05:18:44;;;;;;;20.52;13.52;;;-1.70;99.90;;;;;;5092128;27;20474;-74
2022/04/02 05:21:10;;;;;;;23.75;14.13;;;-1.70;99.90;;;;;;5092573;28;20491;-75
2022/04/02 05:23:36;;;;;;;19.17;12.93;;;-1.70;99.90;;;;;;5092026;27;20028;-74
2022/04/02 05:26:02;;;;;;;19.77;12.93;;;-1.70;99.90;;;;;;5091864;28;20473;-74
2022/04/02 05:28:28;;;;;;;16.77;12.68;;;-1.70;99.90;;;;;;5091041;28;20032;-74
2022/04/02 05:30:54;;;;;;;19.48;13.63;;;-1.60;99.90;;;;;;5101542;28;20043;-74
2022/04/02 05:33:21;;;;;;;21.52;13.70;;;-1.60;99.90;;;;;;5104767;27;20040;-75
2022/04/02 05:35:47;;;;;;;19.58;13.23;;;-1.60;99.90;;;;;;5108154;28;20097;-74
2022/04/02 05:38:13;;;;;;;23.92;16.13;;;-1.60;99.90;;;;;;5110870;27;20400;-75
2022/04/02 05:40:39;;;;;;;21.90;14.55;;;-1.60;99.90;;;;;;5100891;28;20024;-74
2022/04/02 05:43:05;;;;;;;20.05;14.60;;;-1.60;99.90;;;;;;5097274;27;20566;-75
2022/04/02 05:45:32;;;;;;;22.55;14.63;;;-1.60;99.90;;;;;;5097890;28;20020;-75
2022/04/02 05:47:57;;;;;;;20.58;14.43;;;-1.50;99.90;;;;;;5113297;27;20020;-74
2022/04/02 05:50:25;;;;;;;17.48;13.00;;;-1.50;99.90;;;;;;5115453;28;20176;-75
2022/04/02 05:52:51;;;;;;;25.88;17.00;;;-1.50;99.90;;;;;;5114977;27;20022;-75
2022/04/02 05:55:17;;;;;;;18.88;13.77;;;-1.50;99.90;;;;;;5115950;28;20101;-74
2022/04/02 05:57:44;;;;;;;20.58;13.50;;;-1.50;99.90;;;;;;5115093;28;20045;-74
2022/04/02 06:00:11;;;;;;;19.63;14.02;;;-1.40;99.90;;;;;;5116404;27;20039;-74
2022/04/02 06:02:38;;;;;;;26.27;14.50;;;-1.30;99.90;;;;;;5114981;28;20030;-74
2022/04/02 06:05:05;;;;;;;20.17;12.73;;;-1.30;99.90;;;;;;5116353;27;20031;-74
2022/04/02 06:07:31;;;;;;;15.05;10.32;;;-1.30;99.90;;;;;;5116370;28;20074;-74
2022/04/02 06:09:56;;;;;;;14.90;10.80;;;-1.30;99.90;;;;;;5115598;27;20520;-74
2022/04/02 06:12:22;;;;;;;17.13;11.63;;;-1.30;99.90;;;;;;5113841;28;20055;-75
2022/04/02 06:14:48;;;;;;;15.68;10.13;;;-1.30;99.90;;;;;;5114263;27;20039;-74
2022/04/02 06:17:14;;;;;;;16.13;10.68;;;-1.40;99.90;;;;;;5115948;28;20477;-75
2022/04/02 06:19:39;;;;;;;16.17;11.45;;;-1.40;99.90;;;;;;5114189;27;20031;-74
2022/04/02 06:22:08;;;;;;;16.52;11.98;;;-1.40;99.90;;;;;;5116068;28;20035;-75
2022/04/02 06:24:34;;;;;;;15.25;11.10;;;-1.30;99.90;;;;;;5113831;27;20027;-74
2022/04/02 06:27:00;;;;;;;25.23;15.00;;;-1.40;99.90;;;;;;5114488;28;20044;-75
2022/04/02 06:29:26;;;;;;;37.35;20.17;;;-1.30;99.90;;;;;;5114098;27;20070;-74
2022/04/02 06:31:52;;;;;;;17.48;10.32;;;-1.40;99.90;;;;;;5111124;28;20016;-74
2022/04/02 06:34:17;;;;;;;15.35;11.90;;;-1.40;99.90;;;;;;5094977;27;20516;-75
2022/04/02 06:36:43;;;;;;;18.63;13.80;;;-1.40;99.90;;;;;;5095122;28;20024;-74
2022/04/02 06:39:08;;;;;;;17.63;11.95;;;-1.30;99.90;;;;;;5093263;27;20028;-74
2022/04/02 06:41:34;;;;;;;16.02;10.68;;;-1.30;99.90;;;;;;5094558;28;20024;-75
2022/04/02 06:43:59;;;;;;;17.23;12.40;;;-1.30;99.90;;;;;;5115095;27;20039;-74
2022/04/02 06:46:25;;;;;;;17.40;12.88;;;-1.30;99.90;;;;;;5096134;28;20381;-74
2022/04/02 06:48:51;;;;;;;16.33;11.82;;;-1.30;99.90;;;;;;5094638;27;20028;-74
2022/04/02 06:51:17;;;;;;;20.20;12.63;;;-1.30;99.90;;;;;;5095024;28;20116;-75
2022/04/02 06:53:43;;;;;;;29.05;14.15;;;-1.30;99.90;;;;;;5095663;28;20473;-74
2022/04/02 06:56:08;;;;;;;16.90;10.23;;;-1.20;99.90;;;;;;5114688;28;20038;-74
2022/04/02 06:58:36;;;;;;;14.35;10.15;;;-1.20;99.90;;;;;;5113937;28;20047;-73
2022/04/02 07:01:02;;;;;;;20.88;12.25;;;-1.20;99.90;;;;;;5113925;28;20031;-73
2022/04/02 07:03:27;;;;;;;20.45;12.05;;;-1.30;99.90;;;;;;5115352;28;20093;-74
2022/04/02 07:05:53;;;;;;;21.45;13.85;;;-1.40;99.90;;;;;;5113547;28;20411;-73
2022/04/02 07:08:19;;;;;;;15.50;11.15;;;-1.40;99.90;;;;;;5115281;28;20027;-73
2022/04/02 07:10:44;;;;;;;15.15;11.02;;;-1.40;99.90;;;;;;5114213;28;20032;-74
2022/04/02 07:13:10;;;;;;;13.70;10.13;;;-1.40;99.90;;;;;;5114964;28;20106;-74
2022/04/02 07:15:35;;;;;;;15.88;11.50;;;-1.40;99.90;;;;;;5114424;27;20070;-73
2022/04/02 07:18:08;;;;;;;18.95;13.48;;;-1.30;99.90;;;;;;5115108;28;20092;-74
2022/04/02 07:20:36;;;;;;;14.45;11.20;;;-1.30;99.90;;;;;;5113199;27;20032;-73
2022/04/02 07:23:03;;;;;;;18.83;12.25;;;-1.40;99.90;;;;;;5110493;28;20056;-74
2022/04/02 07:25:30;;;;;;;14.07;10.02;;;-1.40;99.90;;;;;;5092883;27;20036;-75
2022/04/02 07:27:57;;;;;;;16.52;12.85;;;-1.50;99.90;;;;;;5092727;28;20050;-74
2022/04/02 07:30:24;;;;;;;24.75;15.68;;;-1.40;99.90;;;;;;5094304;27;20051;-73
2022/04/02 07:32:50;;;;;;;16.83;11.10;;;-1.30;99.90;;;;;;5094112;28;20028;-74
2022/04/02 07:35:17;;;;;;;14.60;10.35;;;-1.20;99.90;;;;;;5093755;27;20048;-74
2022/04/02 07:37:57;;;;;;;14.65;10.30;;;-1.20;99.90;;;;;;5092446;28;20020;-74
2022/04/02 07:40:30;;;;;;;18.80;12.38;;;-1.30;99.90;;;;;;5097492;27;20030;-73
2022/04/02 07:43:07;;;;;;;20.38;11.80;;;-1.20;99.90;;;;;;5114258;28;20020;-74
2022/04/02 07:45:41;;;;;;;21.20;13.50;;;-1.30;99.90;;;;;;5112436;27;20032;-74
2022/04/02 07:48:09;;;;;;;25.55;15.23;;;-1.20;99.90;;;;;;5113992;28;20024;-74
2022/04/02 07:50:35;;;;;;;18.38;11.45;;;-1.20;99.90;;;;;;5113772;27;20437;-75
2022/04/02 07:53:06;;;;;;;21.73;14.68;;;-1.20;99.90;;;;;;5114052;28;20028;-74
2022/04/02 07:55:35;;;;;;;22.38;13.60;;;-1.10;99.90;;;;;;5112550;27;20113;-74
2022/04/02 07:58:02;;;;;;;19.45;12.75;;;-1.20;99.90;;;;;;5112351;28;20024;-74
2022/04/02 08:00:31;;;;;;;23.55;16.80;;;-1.20;99.90;;;;;;5113830;27;20055;-75
2022/04/02 08:02:57;;;;;;;17.63;12.07;;;-1.30;99.90;;;;;;5113963;28;20050;-74
2022/04/02 08:05:23;;;;;;;37.05;20.67;;;-1.40;99.90;;;;;;5113954;28;20031;-74
2022/04/02 08:07:54;;;;;;;18.40;12.98;;;-1.50;99.90;;;;;;5113578;28;20473;-74
2022/04/02 08:10:23;;;;;;;19.02;13.65;;;-1.40;99.90;;;;;;5111844;28;20396;-75
2022/04/02 08:12:49;;;;;;;23.30;15.60;;;-1.50;99.90;;;;;;5113418;28;20028;-74
2022/04/02 08:15:20;;;;;;;16.85;11.82;;;-1.30;99.90;;;;;;5112216;27;20046;-74
2022/04/02 08:17:54;;;;;;;23.20;15.23;;;-1.40;99.90;;;;;;5112074;28;20564;-74
2022/04/02 08:20:20;;;;;;;44.83;24.95;;;-1.30;99.90;;;;;;5112207;27;20035;-74
2022/04/02 08:22:47;;;;;;;22.63;16.13;;;-1.20;99.90;;;;;;5113505;28;20023;-74
2022/04/02 08:25:14;;;;;;;20.63;13.75;;;-1.30;99.90;;;;;;5113106;27;20085;-74
2022/04/02 08:28:18;;;;;;;35.17;20.02;;;-1.40;99.90;;;;;;5113477;28;20016;-74
2022/04/02 08:31:14;;;;;;;22.70;14.07;;;-1.20;99.90;;;;;;5113234;27;20489;-73
2022/04/02 08:34:03;;;;;;;24.35;14.82;;;-1.20;99.90;;;;;;5112151;28;20020;-73
2022/04/02 08:36:49;;;;;;;28.80;15.20;;;-1.20;99.90;;;;;;5111987;28;20417;-74
2022/04/02 08:39:49;;;;;;;36.38;20.65;;;-1.30;99.90;;;;;;5112987;28;20019;-74
2022/04/02 08:42:20;;;;;;;25.23;15.93;;;-1.10;99.90;;;;;;5079350;28;20051;-73
2022/04/02 08:45:00;;;;;;;213.55;85.15;;;-1.10;99.90;;;;;;5105701;28;20377;-73
2022/04/02 08:47:50;;;;;;;153.43;65.63;;;-0.90;99.90;;;;;;5092812;27;20032;-73
2022/04/02 08:50:16;;;;;;;27.00;17.50;;;-0.70;99.90;;;;;;5092941;28;20123;-73
2022/04/02 08:52:48;;;;;;;39.38;24.70;;;-0.80;99.90;;;;;;5092377;27;20071;-73
2022/04/02 08:55:14;;;;;;;23.85;15.90;;;-0.90;99.90;;;;;;5092124;28;20035;-73
2022/04/02 08:57:43;;;;;;;40.50;19.30;;;-0.90;99.90;;;;;;5091054;28;20028;-74
2022/04/02 09:00:12;;;;;;;38.63;20.08;;;-0.80;99.90;;;;;;5092869;28;20032;-74
2022/04/02 09:03:05;;;;;;;83.78;37.45;;;-0.80;99.90;;;;;;5091015;28;20554;-74
2022/04/02 09:06:20;;;;;;;48.20;24.63;;;-0.80;99.90;;;;;;5108302;28;20112;-75
2022/04/02 09:09:02;;;;;;;25.63;16.38;;;-1.00;99.90;;;;;;5109823;28;20430;-74
2022/04/02 09:11:46;;;;;;;37.45;21.13;;;-1.00;99.90;;;;;;5112408;27;20035;-74
2022/04/02 09:14:37;;;;;;;39.28;24.05;;;-1.20;99.90;;;;;;5112578;28;20031;-74
2022/04/02 09:17:30;;;;;;;20.50;14.10;;;-1.30;99.90;;;;;;5092250;27;20516;-75
2022/04/02 09:20:02;;;;;;;;;;;-1.40;99.90;;;;;;5092411;28;20031;-74
2022/04/02 09:23:07;;;;;;;63.63;34.33;;;-1.30;99.90;;;;;;5091942;27;19903;-74
2022/04/02 09:26:13;;;;;;;24.23;14.63;;;-1.10;99.90;;;;;;5085607;28;20048;-74
2022/04/02 09:29:18;;;;;;;24.05;14.40;;;-1.30;99.90;;;;;;5090562;28;20575;-74
2022/04/02 09:32:15;;;;;;;26.23;16.35;;;-1.40;99.90;;;;;;5048112;28;20636;-75
2022/04/02 09:34:59;;;;;;;26.75;16.63;;;-1.40;99.90;;;;;;5087216;28;20539;-74
2022/04/02 09:37:45;;;;;;;25.13;17.00;;;-1.40;99.90;;;;;;5092162;27;20047;-74
2022/04/02 09:40:12;;;;;;;49.25;24.70;;;-1.30;99.90;;;;;;5092334;28;20028;-73
2022/04/02 09:42:41;;;;;;;69.75;30.80;;;-1.30;99.90;;;;;;5109585;27;20491;-75
2022/04/02 09:45:16;;;;;;;68.22;32.47;;;-1.20;99.90;;;;;;5131477;28;20044;-73
2022/04/02 09:47:51;;;;;;;42.35;20.65;;;-1.20;99.90;;;;;;5131953;28;20043;-75
2022/04/02 09:50:25;;;;;;;35.38;17.67;;;-1.30;99.90;;;;;;5131193;27;20023;-75
2022/04/02 09:52:57;;;;;;;34.30;17.35;;;-1.30;99.90;;;;;;5132857;27;20031;-75
2022/04/02 09:55:27;;;;;;;21.75;15.18;;;-1.40;99.90;;;;;;5131912;27;20038;-74
2022/04/02 09:58:15;;;;;;;19.20;12.38;;;-1.40;99.90;;;;;;5133332;27;20015;-74
2022/04/02 10:01:05;;;;;;;19.40;13.23;;;-1.40;99.90;;;;;;5129701;27;20050;-74
2022/04/02 10:03:57;;;;;;;21.52;15.32;;;-1.30;99.90;;;;;;5130047;27;20036;-74
2022/04/02 10:06:38;;;;;;;23.70;15.65;;;-1.40;99.90;;;;;;5130113;27;20019;-74
2022/04/02 10:09:08;;;;;;;26.92;15.85;;;-1.20;99.90;;;;;;5130437;27;20019;-74
2022/04/02 10:11:39;;;;;;;44.63;20.17;;;-1.10;99.90;;;;;;5130448;27;20094;-75
2022/04/02 10:14:06;;;;;;;20.70;12.77;;;-1.00;99.90;;;;;;5130586;27;20047;-74
2022/04/02 10:16:32;;;;;;;18.67;12.68;;;-0.90;99.90;;;;;;5131631;27;20027;-74
2022/04/02 10:19:00;;;;;;;26.48;17.10;;;-1.00;99.90;;;;;;5136490;27;20047;-74
2022/04/02 10:21:29;;;;;;;26.33;16.40;;;-0.90;99.90;;;;;;5137649;27;20105;-74
2022/04/02 10:24:23;;;;;;;22.77;15.30;;;-1.00;99.90;;;;;;5135321;27;20480;-75
2022/04/02 10:26:57;;;;;;;24.70;15.43;;;-1.00;99.90;;;;;;5137780;27;20022;-74
2022/04/02 10:29:38;;;;;;;23.25;15.43;;;-1.10;99.90;;;;;;5137641;27;20072;-75
2022/04/02 10:32:37;;;;;;;23.70;16.63;;;-1.10;99.90;;;;;;5137702;27;20023;-75
2022/04/02 10:35:08;;;;;;;24.83;15.95;;;-0.90;99.90;;;;;;5132221;27;20039;-74
2022/04/02 10:38:03;;;;;;;22.23;14.65;;;-1.00;99.90;;;;;;5137475;27;20023;-74
2022/04/02 10:40:30;;;;;;;29.92;14.18;;;-1.10;99.90;;;;;;5136154;27;20027;-74
2022/04/02 10:43:04;;;;;;;16.50;12.43;;;-1.10;99.90;;;;;;5137401;27;20234;-75
2022/04/02 10:45:34;;;;;;;18.92;12.23;;;-1.00;99.90;;;;;;5135992;27;20528;-74
2022/04/02 10:48:08;;;;;;;21.30;13.02;;;-1.00;99.90;;;;;;5135875;27;20390;-74
2022/04/02 10:50:34;;;;;;;17.73;12.60;;;-0.80;99.90;;;;;;5137004;27;20030;-75
2022/04/02 10:53:02;;;;;;;16.33;11.27;;;-0.70;99.90;;;;;;5137000;27;20156;-74
2022/04/02 10:55:28;;;;;;;28.83;17.75;;;-0.80;99.90;;;;;;5136965;27;20065;-74
2022/04/02 10:57:56;;;;;;;23.00;13.55;;;-0.70;99.90;;;;;;5137135;27;20047;-75
2022/04/02 11:00:26;;;;;;;18.00;13.77;;;-0.60;99.90;;;;;;5135789;27;20064;-74
2022/04/02 11:03:03;;;;;;;21.23;13.07;;;-0.60;99.90;;;;;;5135658;27;20026;-74
2022/04/02 11:05:35;;;;;;;23.55;15.82;;;-0.50;99.90;;;;;;5136996;27;20020;-75
2022/04/02 11:08:10;;;;;;;26.45;16.58;;;-0.50;99.90;;;;;;5136973;27;20019;-74
2022/04/02 11:10:36;;;;;;;29.08;17.85;;;-0.60;99.90;;;;;;5136770;27;20026;-75
2022/04/02 11:13:04;;;;;;;24.27;14.70;;;-0.70;99.90;;;;;;5136987;27;20414;-75
2022/04/02 11:15:36;;;;;;;20.98;14.55;;;-0.80;99.90;;;;;;5136608;27;20411;-74
2022/04/02 11:18:03;;;;;;;22.83;15.98;;;-1.00;99.90;;;;;;5136599;27;20084;-75
2022/04/02 11:20:31;;;;;;;23.90;15.52;;;-0.90;99.90;;;;;;5136646;27;20084;-74
2022/04/02 11:23:20;;;;;;;26.25;14.98;;;-0.90;99.90;;;;;;5136570;27;20361;-75
2022/04/02 11:25:52;;;;;;;23.08;14.55;;;-0.90;99.90;;;;;;5136643;27;20459;-74
2022/04/02 11:28:22;;;;;;;34.08;17.98;;;-1.00;99.90;;;;;;5134927;27;20353;-74
2022/04/02 11:31:01;;;;;;;38.15;18.63;;;-1.00;99.90;;;;;;5135230;27;20030;-75
2022/04/02 11:33:26;;;;;;;34.38;19.50;;;-1.00;99.90;;;;;;5136454;27;20016;-74
2022/04/02 11:35:53;;;;;;;42.20;23.05;;;-1.20;99.90;;;;;;5136070;27;20099;-74
2022/04/02 11:38:20;;;;;;;41.28;24.92;;;-1.20;99.90;;;;;;5136175;27;20019;-75
2022/04/02 11:41:20;;;;;;;39.40;23.13;;;-1.20;99.90;;;;;;5134855;27;20034;-74
2022/04/02 11:43:47;;;;;;;56.45;27.63;;;-1.20;99.90;;;;;;5129150;27;20039;-75
2022/04/02 11:46:15;;;;;;;49.22;26.55;;;-1.10;99.90;;;;;;5136212;27;20383;-74
2022/04/02 11:48:56;;;;;;;42.95;24.15;;;-1.20;99.90;;;;;;5134656;27;20425;-74
2022/04/02 11:51:24;;;;;;;44.95;23.88;;;-1.20;99.90;;;;;;5134756;27;20432;-75
2022/04/02 11:53:51;;;;;;;50.33;27.73;;;-1.30;99.90;;;;;;5135950;27;20156;-75
2022/04/02 11:56:33;;;;;;;48.85;26.88;;;-1.20;99.90;;;;;;5135904;27;20399;-75
2022/04/02 11:59:04;;;;;;;51.30;26.98;;;-1.10;99.90;;;;;;5136005;27;20472;-74
2022/04/02 12:01:43;;;;;;;43.40;23.83;;;-1.20;99.90;;;;;;5135881;27;20022;-75
2022/04/02 12:04:10;;;;;;;32.53;20.00;;;-1.20;99.90;;;;;;5134398;27;20027;-74
2022/04/02 12:06:36;;;;;;;33.05;19.35;;;-1.40;99.90;;;;;;5135677;27;20048;-75
2022/04/02 12:09:19;;;;;;;21.92;14.25;;;-1.40;99.90;;;;;;5134281;27;20030;-74
2022/04/02 12:11:56;;;;;;;35.25;20.35;;;-1.50;99.90;;;;;;5135825;27;20384;-74
2022/04/02 12:14:34;;;;;;;32.60;17.58;;;-1.40;99.90;;;;;;5134157;27;20023;-75
2022/04/02 12:17:09;;;;;;;32.63;17.42;;;-1.40;99.90;;;;;;5135462;27;20007;-75
2022/04/02 12:19:46;;;;;;;31.50;17.45;;;-1.40;99.90;;;;;;5135317;27;20051;-75
2022/04/02 12:22:27;;;;;;;29.17;16.65;;;-1.30;99.90;;;;;;5135372;27;20023;-75
2022/04/02 12:24:55;;;;;;;24.23;15.77;;;-1.30;99.90;;;;;;5135518;27;20016;-74
2022/04/02 12:27:27;;;;;;;26.15;15.30;;;-1.40;99.90;;;;;;5135361;27;20027;-74
2022/04/02 12:29:54;;;;;;;27.70;15.07;;;-1.30;99.90;;;;;;5125861;27;20072;-74
2022/04/02 12:32:35;;;;;;;25.10;17.65;;;-1.30;99.90;;;;;;5114465;28;20023;-75
2022/04/02 12:35:34;;;;;;;32.45;18.70;;;-1.30;99.90;;;;;;5112666;28;20051;-75
2022/04/02 12:38:05;;;;;;;31.55;19.92;;;-1.20;99.90;;;;;;5100087;28;20087;-75
2022/04/02 12:40:40;;;;;;;31.83;18.83;;;-1.40;99.90;;;;;;5113903;28;20032;-74
2022/04/02 12:43:09;;;;;;;43.25;22.05;;;-1.40;99.90;;;;;;5114664;28;20471;-74
2022/04/02 12:45:37;;;;;;;31.45;18.20;;;-1.30;99.90;;;;;;5114346;28;20028;-74
2022/04/02 12:48:04;;;;;;;32.33;20.35;;;-1.40;99.90;;;;;;5113184;28;20388;-75
2022/04/02 12:50:32;;;;;;;32.88;21.73;;;-1.30;99.90;;;;;;5114379;28;20028;-75
2022/04/02 12:52:58;;;;;;;40.35;23.15;;;-1.30;99.90;;;;;;5114302;28;20062;-74
2022/04/02 12:55:29;;;;;;;38.78;22.48;;;-1.40;99.90;;;;;;5112653;28;20063;-74
2022/04/02 12:58:07;;;;;;;42.28;23.92;;;-1.60;99.90;;;;;;5114287;28;20031;-74
2022/04/02 13:00:41;;;;;;;40.83;22.52;;;-1.60;99.90;;;;;;5114251;28;20393;-74
2022/04/02 13:03:07;;;;;;;48.03;29.08;;;-1.50;99.90;;;;;;5114210;28;20028;-74
2022/04/02 13:05:50;;;;;;;41.05;24.23;;;-1.40;99.90;;;;;;5114175;28;20514;-74
2022/04/02 13:08:25;;;;;;;53.22;27.92;;;-1.50;99.90;;;;;;5112853;28;20511;-75
2022/04/02 13:10:55;;;;;;;43.67;25.40;;;-1.40;99.90;;;;;;5114140;28;20020;-74
2022/04/02 13:13:41;;;;;;;42.60;24.17;;;-1.40;99.90;;;;;;5114177;28;20015;-74
2022/04/02 13:16:09;;;;;;;49.15;26.48;;;-1.50;99.90;;;;;;5112664;28;20483;-75
2022/04/02 13:21:24;;;;;;;51.92;30.70;;;-1.50;99.90;;;;;;5114307;28;20122;-74
2022/04/02 13:24:20;;;;;;;42.85;25.77;;;-1.40;99.90;;;;;;5112648;28;20024;-74
2022/04/02 13:27:07;;;;;;;65.95;30.52;;;-1.40;99.90;;;;;;5112725;28;20558;-75
2022/04/02 13:29:54;;;;;;;52.05;28.25;;;-1.40;99.90;;;;;;5113875;28;20066;-75
2022/04/02 13:33:06;;;;;;;46.30;26.85;;;-1.40;99.90;;;;;;5112597;28;20118;-75
2022/04/02 13:35:44;;;;;;;44.20;22.63;;;-1.30;99.90;;;;;;5113568;28;20047;-74
2022/04/02 13:38:28;;;;;;;39.30;24.63;;;-1.30;99.90;;;;;;5113947;28;20583;-74
2022/04/02 13:40:59;;;;;;;43.88;27.88;;;-1.40;99.90;;;;;;5113674;28;20076;-74
2022/04/02 13:43:30;;;;;;;39.85;22.27;;;-1.30;99.90;;;;;;5112461;28;20489;-75
2022/04/02 13:45:59;;;;;;;41.10;23.30;;;-1.30;99.90;;;;;;5113617;28;20472;-75
2022/04/02 13:48:26;;;;;;;47.83;25.90;;;-1.30;99.90;;;;;;5112322;28;20039;-74
2022/04/02 13:51:04;;;;;;;53.53;29.00;;;-1.30;99.90;;;;;;5113236;28;20030;-74
2022/04/02 13:53:35;;;;;;;44.20;26.55;;;-1.20;99.90;;;;;;5116492;28;20028;-74
2022/04/02 13:56:12;;;;;;;46.22;28.75;;;-1.20;99.90;;;;;;5117746;27;20028;-74
2022/04/02 13:58:48;;;;;;;43.92;26.08;;;-1.20;99.90;;;;;;5117749;28;20020;-74
2022/04/02 14:01:19;;;;;;;52.67;28.60;;;-1.20;99.90;;;;;;5117710;28;20028;-74
2022/04/02 14:03:53;;;;;;;49.63;26.33;;;-1.10;99.90;;;;;;5117592;28;20107;-74
2022/04/02 14:06:24;;;;;;;51.78;28.77;;;-0.90;99.90;;;;;;5117394;27;20023;-75
2022/04/02 14:08:56;;;;;;;48.22;26.60;;;-0.90;99.90;;;;;;5116069;28;20016;-74
2022/04/02 14:11:23;;;;;;;72.22;38.47;;;-0.80;99.90;;;;;;5117413;28;20379;-74
2022/04/02 14:14:04;;;;;;;44.45;26.77;;;-0.70;99.90;;;;;;5117219;28;20053;-75
2022/04/02 14:16:32;;;;;;;66.00;34.90;;;-0.70;99.90;;;;;;5115970;28;20046;-75
2022/04/02 14:19:12;;;;;;;61.33;32.00;;;-0.60;99.90;;;;;;5117312;28;20050;-74
2022/04/02 14:21:38;;;;;;;48.67;27.58;;;-0.60;99.90;;;;;;5117301;28;20024;-75
2022/04/02 14:24:21;;;;;;;58.85;33.30;;;-0.60;99.90;;;;;;5117195;28;20032;-74
2022/04/02 14:27:05;;;;;;;70.30;33.80;;;-0.60;99.90;;;;;;5115877;28;20093;-75
2022/04/02 14:29:45;;;;;;;61.88;33.72;;;-0.70;99.90;;;;;;5115739;28;20085;-74
2022/04/02 14:32:43;;;;;;;56.85;30.65;;;-0.70;99.90;;;;;;5117038;28;20372;-75
2022/04/02 14:35:19;;;;;;;78.40;39.55;;;-0.70;99.90;;;;;;5115390;28;20396;-75
2022/04/02 14:37:57;;;;;;;62.35;33.45;;;-0.70;99.90;;;;;;5117119;28;20023;-76
2022/04/02 14:40:50;;;;;;;42.30;26.88;;;-0.70;99.90;;;;;;5116762;27;20020;-75
2022/04/02 14:44:03;;;;;;;59.67;34.72;;;-0.80;99.90;;;;;;5115549;28;20020;-74
2022/04/02 14:47:06;;;;;;;56.58;31.42;;;-0.70;99.90;;;;;;5116651;28;20034;-75
2022/04/02 14:49:43;;;;;;;73.30;37.08;;;-0.60;99.90;;;;;;5116716;28;20099;-75
2022/04/02 14:52:17;;;;;;;65.68;32.30;;;-0.60;99.90;;;;;;5115307;28;20027;-74
2022/04/02 14:55:20;;;;;;;64.18;32.13;;;-0.70;99.90;;;;;;5116466;28;20472;-74
2022/04/02 14:58:16;;;;;;;57.72;29.85;;;-0.60;99.90;;;;;;5115291;28;20110;-74
2022/04/02 15:00:54;;;;;;;53.95;28.98;;;-0.70;99.90;;;;;;5116522;28;20390;-75
2022/04/02 15:03:46;;;;;;;57.58;29.25;;;-0.70;99.90;;;;;;5114669;28;20384;-74
2022/04/02 15:06:13;;;;;;;74.53;34.92;;;-0.70;99.90;;;;;;5115280;28;20066;-74
2022/04/02 15:09:06;;;;;;;76.43;35.45;;;-0.70;99.90;;;;;;5115046;28;20022;-76
2022/04/02 15:11:34;;;;;;;72.47;32.40;;;-0.70;99.90;;;;;;5116336;27;20070;-74
2022/04/02 15:14:11;;;;;;;78.05;38.05;;;-0.70;99.90;;;;;;5114869;28;20016;-74
2022/04/02 15:16:36;;;;;;;56.63;27.02;;;-0.70;99.90;;;;;;5114599;28;20045;-75
2022/04/02 15:19:20;;;;;;;66.60;35.35;;;-0.70;99.90;;;;;;5115933;28;20102;-75
2022/04/02 15:21:46;;;;;;;61.83;32.08;;;-0.60;99.90;;;;;;5116291;28;20072;-74
2022/04/02 15:24:17;;;;;;;41.78;25.73;;;-0.60;99.90;;;;;;5116353;28;20019;-74
2022/04/02 15:26:54;;;;;;;51.70;28.85;;;-0.80;99.90;;;;;;5114684;28;20065;-74
2022/04/02 15:29:33;;;;;;;68.10;35.42;;;-0.70;99.90;;;;;;5115889;27;20521;-75
2022/04/02 15:32:18;;;;;;;60.88;30.90;;;-0.70;99.90;;;;;;5114650;28;20028;-74
2022/04/02 15:34:56;;;;;;;60.25;31.52;;;-0.70;99.90;;;;;;5115569;28;20438;-75
2022/04/02 15:37:27;;;;;;;52.65;29.40;;;-0.70;99.90;;;;;;5115818;28;20048;-76
2022/04/02 15:40:07;;;;;;;49.58;26.45;;;-0.70;99.90;;;;;;5115698;28;20027;-75
2022/04/02 15:42:38;;;;;;;49.10;27.23;;;-0.60;99.90;;;;;;5115494;28;20026;-74
2022/04/02 15:45:05;;;;;;;46.83;29.70;;;-0.60;99.90;;;;;;5115413;28;20027;-75
2022/04/02 15:47:51;;;;;;;73.35;38.13;;;-0.60;99.90;;;;;;5115400;28;20353;-75
2022/04/02 15:50:28;;;;;;;42.65;25.75;;;-0.60;99.90;;;;;;5110596;28;20028;-75
2022/04/02 15:53:09;;;;;;;50.33;26.55;;;-0.60;99.90;;;;;;5114404;28;20076;-75
2022/04/02 15:55:53;;;;;;;55.65;32.22;;;-0.70;99.90;;;;;;5110859;27;20519;-75
2022/04/02 15:58:21;;;;;;;39.58;24.63;;;-0.60;99.90;;;;;;5114229;27;20019;-74
2022/04/02 16:00:52;;;;;;;45.35;26.13;;;-0.70;99.90;;;;;;5097441;27;20109;-74
2022/04/02 16:03:45;;;;;;;38.42;23.55;;;-0.70;99.90;;;;;;5112411;28;20023;-75
2022/04/02 16:06:23;;;;;;;39.72;24.90;;;-0.70;99.90;;;;;;5098324;28;20035;-75
2022/04/02 16:08:52;;;;;;;38.38;23.70;;;-0.60;99.90;;;;;;5114519;28;20598;-75
2022/04/02 16:11:33;;;;;;;42.60;24.02;;;-0.70;99.90;;;;;;5113358;28;20024;-75
2022/04/02 16:14:08;;;;;;;66.35;32.67;;;-0.60;99.90;;;;;;5112801;28;20042;-75
2022/04/02 16:16:52;;;;;;;57.80;31.80;;;-0.60;99.90;;;;;;5113895;28;20035;-74
2022/04/02 16:19:40;;;;;;;50.55;28.73;;;-0.50;99.90;;;;;;5113126;28;20020;-74
2022/04/02 16:22:17;;;;;;;87.22;43.38;;;-0.60;99.90;;;;;;5113312;28;20053;-75
2022/04/02 16:24:55;;;;;;;107.85;55.88;;;-0.50;99.90;;;;;;5113039;28;20384;-74
2022/04/02 16:27:21;;;;;;;59.78;38.25;;;-0.60;99.90;;;;;;5115021;28;20032;-75
2022/04/02 16:29:48;;;;;;;68.57;41.50;;;-0.50;99.90;;;;;;5113064;28;20078;-75
2022/04/02 16:32:13;;;;;;;107.60;60.22;;;-0.40;99.90;;;;;;5108541;27;20039;-75
2022/04/02 16:34:43;;;;;;;57.20;34.28;;;-0.50;99.90;;;;;;5111464;28;20481;-76
2022/04/02 16:37:10;;;;;;;55.97;33.78;;;-0.40;99.90;;;;;;5113331;27;20098;-76